Time;durP1;ratioP1;P1;durP2;ratioP2;P2;SDS_P1;SDS_P2;PMS_P1;PMS_P2;Temp;Humidity;BMP_temperature;BMP_pressure;BME280_temperature;BME280_humidity;BME280_pressure;Samples;Min_cycle;Max_cycle;Signal;HPM_P1;HPM_P2
2021/12/26 07:50:57;;;;;;;18.55;8.85;;;;;;;1.00;83.80;97340.44;4966874;23;19927;-49
2021/12/26 07:53:22;;;;;;;17.17;8.25;;;;;;;0.99;85.31;97359.41;4936913;29;20040;-50
2021/12/26 07:55:48;;;;;;;16.27;8.27;;;;;;;1.23;83.74;97367.00;4936018;29;20380;-48
2021/12/26 07:58:15;;;;;;;17.20;8.57;;;;;;;1.30;83.44;97370.97;4934761;29;20028;-53
2021/12/26 08:00:41;;;;;;;18.13;8.88;;;;;;;1.26;83.75;97374.59;4935907;29;20031;-48
2021/12/26 08:03:06;;;;;;;19.42;9.55;;;;;;;1.20;84.83;97373.13;4934512;29;20098;-49
2021/12/26 08:05:32;;;;;;;17.90;8.18;;;;;;;1.08;84.40;97374.50;4934650;29;20033;-48
2021/12/26 08:07:57;;;;;;;18.60;8.93;;;;;;;1.01;84.75;97378.28;4937964;29;20467;-48
2021/12/26 08:10:23;;;;;;;15.25;8.30;;;;;;;1.24;84.29;97373.81;4937353;29;20036;-48
2021/12/26 08:12:48;;;;;;;17.77;8.60;;;;;;;1.29;83.34;97367.56;4935101;29;20027;-48
2021/12/26 08:15:14;;;;;;;18.35;8.98;;;;;;;1.37;83.75;97362.88;4938293;29;20063;-51
2021/12/26 08:17:40;;;;;;;17.90;8.45;;;;;;;1.36;83.73;97368.13;4937213;29;20446;-47
2021/12/26 08:20:06;;;;;;;17.90;9.07;;;;;;;1.27;83.81;97376.28;4929431;29;20040;-49
2021/12/26 08:22:31;;;;;;;19.00;8.70;;;;;;;1.42;84.46;97373.03;4937767;29;20055;-51
2021/12/26 08:24:57;;;;;;;19.65;9.18;;;;;;;1.32;84.90;97382.09;4932917;29;20031;-50
2021/12/26 08:27:22;;;;;;;17.15;8.63;;;;;;;1.38;84.38;97371.50;4938178;29;20028;-49
2021/12/26 08:29:48;;;;;;;21.98;9.05;;;;;;;1.36;84.50;97378.47;4933194;29;20036;-48
2021/12/26 08:32:15;;;;;;;16.48;8.10;;;;;;;1.34;84.78;97365.63;4937471;29;20051;-50
2021/12/26 08:34:42;;;;;;;16.90;8.30;;;;;;;1.33;84.01;97365.69;4937445;29;20032;-52
2021/12/26 08:37:07;;;;;;;17.80;9.05;;;;;;;1.29;84.53;97362.38;4937137;29;20024;-52
2021/12/26 08:39:35;;;;;;;19.63;9.00;;;;;;;1.20;84.67;97367.97;4938448;29;20030;-52
2021/12/26 08:42:00;;;;;;;17.08;7.72;;;;;;;1.37;84.65;97372.38;4932993;29;20032;-48
2021/12/26 08:44:26;;;;;;;17.00;8.52;;;;;;;1.43;84.26;97366.94;4916800;29;20043;-48
2021/12/26 08:46:52;;;;;;;16.77;8.25;;;;;;;1.43;84.33;97372.09;4934207;29;20026;-50
2021/12/26 08:49:17;;;;;;;18.15;8.25;;;;;;;1.38;84.37;97377.50;4930864;29;20032;-48
2021/12/26 08:51:42;;;;;;;16.73;7.97;;;;;;;1.34;84.18;97375.09;4936325;29;20035;-50
2021/12/26 08:54:08;;;;;;;16.42;8.13;;;;;;;1.38;84.34;97371.50;4936695;29;20501;-50
2021/12/26 08:56:34;;;;;;;16.95;8.30;;;;;;;1.44;83.79;97376.34;4936543;29;20343;-51
2021/12/26 08:58:59;;;;;;;16.83;7.63;;;;;;;1.58;83.77;97373.16;4935916;29;20031;-47
2021/12/26 09:01:24;;;;;;;18.52;8.27;;;;;;;1.76;82.42;97376.66;4938052;29;20038;-51
2021/12/26 09:03:50;;;;;;;15.95;7.38;;;;;;;1.53;83.71;97378.53;4937075;29;20071;-48
2021/12/26 09:06:15;;;;;;;14.57;7.80;;;;;;;1.65;83.30;97380.56;4936725;29;20024;-50
2021/12/26 09:08:40;;;;;;;16.83;8.85;;;;;;;1.57;84.16;97381.81;4937009;29;20051;-48
2021/12/26 09:11:06;;;;;;;16.67;7.82;;;;;;;1.84;82.61;97379.72;4937503;29;20091;-49
2021/12/26 09:13:33;;;;;;;15.82;7.75;;;;;;;1.77;83.18;97386.09;4938058;29;20027;-51
2021/12/26 09:15:58;;;;;;;17.15;8.52;;;;;;;1.95;82.54;97387.81;4938424;29;20024;-48
2021/12/26 09:18:23;;;;;;;15.75;7.68;;;;;;;2.13;82.57;97386.09;4940866;29;20030;-50
2021/12/26 09:20:49;;;;;;;16.60;8.02;;;;;;;2.23;81.71;97383.91;4940992;29;20032;-49
2021/12/26 09:23:14;;;;;;;16.55;8.27;;;;;;;2.08;81.57;97383.72;4938823;29;20042;-46
2021/12/26 09:25:39;;;;;;;17.40;8.60;;;;;;;2.11;81.75;97391.34;4941064;29;20031;-51
2021/12/26 09:28:05;;;;;;;16.48;8.60;;;;;;;2.05;82.08;97399.38;4939438;29;20095;-47
2021/12/26 09:30:30;;;;;;;20.25;8.90;;;;;;;2.14;82.40;97400.72;4940567;29;20038;-48
2021/12/26 09:32:56;;;;;;;17.83;8.07;;;;;;;2.30;81.38;97393.03;4941849;29;20114;-48
2021/12/26 09:35:21;;;;;;;17.23;8.70;;;;;;;2.13;81.65;97396.44;4939502;29;20031;-52
2021/12/26 09:37:46;;;;;;;17.40;8.48;;;;;;;2.12;81.67;97393.00;4933504;29;20028;-49
2021/12/26 09:40:13;;;;;;;16.10;7.97;;;;;;;2.30;81.59;97398.22;4938789;29;20028;-50
2021/12/26 09:42:39;;;;;;;16.83;7.90;;;;;;;2.21;81.50;97394.34;4938839;29;20031;-51
2021/12/26 09:45:05;;;;;;;17.70;7.75;;;;;;;2.27;81.10;97396.63;4938635;29;20038;-50
2021/12/26 09:47:30;;;;;;;17.13;8.18;;;;;;;2.23;81.67;97396.84;4939769;29;20055;-51
2021/12/26 09:49:55;;;;;;;16.05;7.93;;;;;;;2.24;80.93;97390.78;4938588;29;20032;-48
2021/12/26 09:52:21;;;;;;;16.27;7.75;;;;;;;2.25;81.62;97384.69;4939577;29;20035;-50
2021/12/26 09:54:46;;;;;;;15.05;7.88;;;;;;;2.17;81.76;97379.00;4939739;29;20068;-49
2021/12/26 09:57:12;;;;;;;14.63;7.50;;;;;;;2.10;82.03;97383.66;4941266;29;20370;-48
2021/12/26 09:59:38;;;;;;;15.88;7.68;;;;;;;2.29;81.38;97386.19;4941036;29;20020;-51
2021/12/26 10:02:09;;;;;;;16.75;8.25;;;;;;;2.36;79.83;97377.22;4941140;29;20050;-53
2021/12/26 10:04:34;;;;;;;15.13;7.38;;;;;;;2.58;79.44;97380.44;4940706;29;20028;-52
2021/12/26 10:07:01;;;;;;;15.50;7.53;;;;;;;2.29;81.08;97370.69;4939262;29;20083;-54
2021/12/26 10:09:28;;;;;;;16.08;7.93;;;;;;;2.24;80.22;97372.66;4939443;29;20168;-52
2021/12/26 10:11:55;;;;;;;14.90;7.45;;;;;;;2.43;80.45;97365.66;4937951;29;20041;-47
2021/12/26 10:14:25;;;;;;;16.10;7.90;;;;;;;2.31;81.25;97368.88;4938412;29;20032;-47
2021/12/26 10:17:19;;;;;;;14.93;7.43;;;;;;;2.38;79.77;97372.81;4932826;29;20479;-48
2021/12/26 10:19:45;;;;;;;15.25;7.05;;;;;;;2.34;79.91;97364.38;4938320;29;20038;-50
2021/12/26 10:22:12;;;;;;;14.65;7.00;;;;;;;2.32;81.10;97366.19;4932831;29;20035;-49
2021/12/26 10:24:39;;;;;;;15.15;7.28;;;;;;;2.45;79.37;97363.84;4935030;29;20035;-53
2021/12/26 10:27:06;;;;;;;15.30;6.82;;;;;;;2.42;80.25;97361.41;4931702;29;20024;-52
2021/12/26 10:29:38;;;;;;;13.77;6.82;;;;;;;2.43;79.91;97362.22;4937151;29;20059;-53
2021/12/26 10:32:19;;;;;;;16.42;7.18;;;;;;;2.50;78.82;97358.44;4937718;29;20023;-50
2021/12/26 10:34:54;;;;;;;14.38;7.55;;;;;;;2.40;79.43;97362.38;4937958;29;20028;-47
2021/12/26 10:37:29;;;;;;;15.95;7.63;;;;;;;2.48;79.79;97355.94;4936983;29;20075;-52
2021/12/26 10:39:57;;;;;;;14.27;6.97;;;;;;;2.34;79.31;97353.16;4929799;29;20030;-49
2021/12/26 10:42:25;;;;;;;14.95;7.22;;;;;;;2.25;79.52;97357.06;4938902;29;20028;-50
2021/12/26 10:44:59;;;;;;;16.70;8.82;;;;;;;2.02;80.90;97352.97;4935672;29;20123;-48
2021/12/26 10:47:26;;;;;;;15.45;7.78;;;;;;;2.33;79.91;97341.13;4938171;29;20016;-49
2021/12/26 10:49:54;;;;;;;15.10;7.57;;;;;;;2.25;79.75;97353.63;4936095;29;20036;-50
2021/12/26 10:52:21;;;;;;;13.98;7.45;;;;;;;2.33;79.71;97335.97;4936438;29;20035;-48
2021/12/26 10:54:52;;;;;;;16.60;7.40;;;;;;;2.49;78.53;97333.47;4936423;29;20079;-50
2021/12/26 10:57:19;;;;;;;16.88;8.48;;;;;;;2.37;79.11;97334.91;4937650;29;20432;-48
2021/12/26 10:59:46;;;;;;;14.90;7.00;;;;;;;2.53;79.36;97341.00;4933931;29;20019;-48
2021/12/26 11:02:21;;;;;;;15.95;8.32;;;;;;;2.65;78.50;97330.94;4938293;29;20468;-49
2021/12/26 11:04:58;;;;;;;13.82;6.95;;;;;;;2.63;78.11;97327.59;4921248;29;20043;-51
2021/12/26 11:07:23;;;;;;;15.68;7.13;;;;;;;2.73;78.25;97331.41;4936711;29;20023;-52
2021/12/26 11:10:07;;;;;;;16.23;7.72;;;;;;;2.67;77.79;97321.34;4935075;29;20034;-50
2021/12/26 11:12:41;;;;;;;16.50;7.85;;;;;;;2.58;79.01;97318.31;4934532;29;20384;-48
2021/12/26 11:15:07;;;;;;;15.85;7.40;;;;;;;2.75;77.71;97312.28;4935013;29;20070;-51
2021/12/26 11:17:34;;;;;;;15.68;7.50;;;;;;;2.82;77.33;97317.97;4937070;29;20392;-53
2021/12/26 11:20:00;;;;;;;16.17;7.72;;;;;;;2.54;78.74;97319.34;4935754;29;20046;-51
2021/12/26 11:22:25;;;;;;;14.25;6.90;;;;;;;2.55;79.46;97313.28;4934535;29;20039;-48
2021/12/26 11:24:53;;;;;;;13.73;7.65;;;;;;;2.76;77.65;97318.28;4936345;29;20547;-53
2021/12/26 11:27:22;;;;;;;17.17;7.20;;;;;;;2.81;77.53;97319.72;4935331;29;20024;-52
2021/12/26 11:29:48;;;;;;;14.23;7.10;;;;;;;2.70;77.28;97308.25;4927525;29;20036;-51
2021/12/26 11:32:18;;;;;;;14.15;6.43;;;;;;;2.86;77.61;97327.25;4936964;29;20066;-52
2021/12/26 11:34:47;;;;;;;13.88;7.22;;;;;;;2.78;76.83;97317.28;4935435;29;20087;-53
2021/12/26 11:37:13;;;;;;;15.88;7.82;;;;;;;2.89;77.83;97308.97;4938054;29;20102;-50
2021/12/26 11:39:39;;;;;;;16.45;7.30;;;;;;;2.93;78.01;97320.84;4935017;29;20031;-50
2021/12/26 11:42:05;;;;;;;15.18;7.30;;;;;;;2.93;77.33;97317.44;4920006;29;20034;-53
2021/12/26 11:45:08;;;;;;;15.70;8.13;;;;;;;3.01;77.07;97316.09;4936420;29;20027;-51
2021/12/26 11:48:21;;;;;;;13.82;7.22;;;;;;;3.22;76.56;97305.53;4936907;29;20020;-53
2021/12/26 11:51:14;;;;;;;14.73;7.55;;;;;;;3.16;76.55;97304.06;4936579;29;20058;-53
2021/12/26 11:54:12;;;;;;;15.05;8.02;;;;;;;2.99;76.98;97307.56;4935243;29;20032;-51
2021/12/26 11:56:52;;;;;;;15.57;7.25;;;;;;;2.98;77.33;97313.66;4934400;29;20032;-53
2021/12/26 11:59:42;;;;;;;14.43;7.40;;;;;;;2.96;77.01;97315.50;4937812;29;20032;-51
2021/12/26 12:02:07;;;;;;;14.27;7.05;;;;;;;3.22;76.63;97300.34;4932097;29;20031;-48
2021/12/26 12:04:33;;;;;;;16.42;6.82;;;;;;;3.19;75.91;97300.50;4936290;29;20463;-48
2021/12/26 12:07:04;;;;;;;14.18;7.85;;;;;;;3.17;76.73;97297.16;4937383;29;20028;-50
2021/12/26 12:09:34;;;;;;;16.38;7.60;;;;;;;3.09;76.26;97293.19;4935780;29;20055;-51
2021/12/26 12:12:06;;;;;;;14.85;7.47;;;;;;;3.17;76.57;97292.81;4935871;29;20038;-51
2021/12/26 12:14:49;;;;;;;17.10;8.27;;;;;;;3.02;77.39;97293.63;4935722;29;20551;-49
2021/12/26 12:17:16;;;;;;;14.18;7.18;;;;;;;3.01;76.79;97287.59;4936988;29;20035;-51
2021/12/26 12:20:10;;;;;;;16.15;8.15;;;;;;;3.32;76.36;97291.97;4936081;29;20046;-52
2021/12/26 12:22:36;;;;;;;14.05;7.18;;;;;;;3.36;76.53;97281.44;4933395;29;20496;-53
2021/12/26 12:25:35;;;;;;;15.65;7.47;;;;;;;3.14;76.54;97286.97;4934098;29;20056;-50
2021/12/26 12:28:11;;;;;;;15.10;7.28;;;;;;;3.24;75.65;97288.16;4936465;29;20102;-48
2021/12/26 12:30:37;;;;;;;12.90;7.20;;;;;;;3.09;76.25;97271.63;4936320;29;20032;-50
2021/12/26 12:33:30;;;;;;;16.15;7.25;;;;;;;3.17;76.22;97291.97;4936563;29;20051;-49
2021/12/26 12:36:08;;;;;;;15.65;6.68;;;;;;;3.24;77.52;97286.38;4934453;29;20070;-49
2021/12/26 12:38:45;;;;;;;16.40;6.85;;;;;;;3.45;75.79;97281.78;4940429;29;20038;-52
2021/12/26 12:41:29;;;;;;;16.30;7.38;;;;;;;3.23;76.61;97291.63;4935696;29;20483;-51
2021/12/26 12:43:55;;;;;;;14.48;6.93;;;;;;;3.33;75.92;97266.91;4936650;29;20099;-55
2021/12/26 12:46:21;;;;;;;14.27;7.38;;;;;;;3.31;76.12;97282.53;4937654;29;20020;-53
2021/12/26 12:48:50;;;;;;;15.00;7.85;;;;;;;3.44;76.19;97279.25;4930846;29;20150;-49
2021/12/26 12:51:16;;;;;;;13.77;6.88;;;;;;;3.39;77.21;97279.53;4935913;29;20381;-52
2021/12/26 12:53:46;;;;;;;15.50;7.90;;;;;;;3.44;75.56;97280.13;4941175;29;20174;-49
2021/12/26 12:56:36;;;;;;;15.37;7.57;;;;;;;3.70;74.96;97272.66;4941160;29;20031;-52
2021/12/26 13:01:43;;;;;;;14.23;7.38;;;;;;;3.30;75.63;97272.25;4940596;29;20031;-54
2021/12/26 13:04:09;;;;;;;14.18;6.72;;;;;;;3.19;77.42;97270.22;4938262;29;20028;-50
2021/12/26 13:06:35;;;;;;;16.63;7.68;;;;;;;3.38;77.26;97275.28;4944845;29;20035;-47
2021/12/26 13:09:00;;;;;;;15.45;7.20;;;;;;;3.36;76.60;97273.69;4934911;29;20024;-51
2021/12/26 13:11:29;;;;;;;13.98;7.43;;;;;;;3.63;75.82;97266.13;4947555;29;20024;-51
2021/12/26 13:13:57;;;;;;;13.20;7.05;;;;;;;3.44;75.93;97271.50;4936873;29;20028;-49
2021/12/26 13:16:28;;;;;;;18.30;8.73;;;;;;;3.25;77.46;97264.72;4947713;29;20062;-49
2021/12/26 13:18:53;;;;;;;15.98;7.53;;;;;;;3.21;76.41;97270.16;4946310;29;20115;-49
2021/12/26 13:21:19;;;;;;;13.68;6.97;;;;;;;3.18;76.96;97262.56;4946518;29;20039;-48
2021/12/26 13:23:46;;;;;;;14.05;7.28;;;;;;;3.23;77.00;97276.09;4960855;29;20505;-50
2021/12/26 13:26:11;;;;;;;15.27;7.70;;;;;;;3.21;77.14;97277.94;4961190;28;20024;-50
2021/12/26 13:28:37;;;;;;;15.18;7.10;;;;;;;3.14;77.54;97274.84;4947906;28;20027;-51
2021/12/26 13:31:17;;;;;;;27.02;12.43;;;;;;;3.00;78.12;97269.56;4925782;29;20024;-52
2021/12/26 13:33:43;;;;;;;16.08;8.23;;;;;;;3.19;77.09;97279.75;4940164;29;20035;-52
2021/12/26 13:36:20;;;;;;;16.02;7.68;;;;;;;3.21;76.79;97277.94;4941063;29;20038;-52
2021/12/26 13:38:46;;;;;;;15.48;7.32;;;;;;;3.25;76.46;97263.88;4943114;29;20372;-51
2021/12/26 13:41:17;;;;;;;18.05;9.00;;;;;;;3.24;77.42;97277.78;4941713;29;20534;-51
2021/12/26 13:43:42;;;;;;;15.50;7.68;;;;;;;3.31;76.89;97287.72;4940759;29;20031;-47
2021/12/26 13:46:14;;;;;;;16.80;8.27;;;;;;;3.05;77.01;97289.09;4941929;29;20031;-49
2021/12/26 13:48:41;;;;;;;15.23;6.93;;;;;;;3.11;77.61;97287.13;4941887;29;20035;-51
2021/12/26 13:51:25;;;;;;;17.05;8.00;;;;;;;3.31;76.89;97290.31;4941983;29;20035;-51
2021/12/26 13:53:55;;;;;;;25.50;12.80;;;;;;;3.24;77.21;97282.97;4942282;29;20027;-52
2021/12/26 13:56:20;;;;;;;18.75;9.35;;;;;;;3.23;77.89;97281.28;4942101;29;20035;-51
2021/12/26 13:58:46;;;;;;;25.42;12.07;;;;;;;3.22;78.55;97290.81;4942015;29;20024;-51
2021/12/26 14:01:11;;;;;;;25.25;12.50;;;;;;;3.17;77.29;97281.63;4941933;29;20023;-51
2021/12/26 14:03:37;;;;;;;44.25;24.80;;;;;;;3.20;78.08;97286.59;4941763;29;20035;-50
2021/12/26 14:06:02;;;;;;;27.63;14.50;;;;;;;3.00;77.98;97280.75;4942905;29;20023;-52
2021/12/26 14:08:28;;;;;;;30.38;15.65;;;;;;;3.11;77.25;97282.78;4942456;29;20487;-49
2021/12/26 14:11:04;;;;;;;17.40;8.65;;;;;;;3.26;77.23;97281.09;4942202;29;20061;-50
2021/12/26 14:13:30;;;;;;;16.85;9.32;;;;;;;3.22;77.85;97279.59;4941531;29;20038;-52
2021/12/26 14:15:57;;;;;;;16.65;7.75;;;;;;;3.35;77.18;97280.63;4932325;29;20054;-52
2021/12/26 14:18:34;;;;;;;14.60;6.97;;;;;;;3.27;77.18;97286.22;4923942;29;20027;-51
2021/12/26 14:21:09;;;;;;;13.25;6.07;;;;;;;3.25;77.39;97284.63;4929157;29;20035;-51
2021/12/26 14:23:56;;;;;;;16.08;7.43;;;;;;;3.28;77.42;97280.09;4941771;29;20273;-49
2021/12/26 14:26:29;;;;;;;14.55;6.82;;;;;;;3.20;76.45;97278.84;4942042;29;20027;-49
2021/12/26 14:29:01;;;;;;;14.85;6.32;;;;;;;3.25;77.76;97282.03;4940711;29;20030;-50
2021/12/26 14:31:40;;;;;;;13.25;6.30;;;;;;;3.25;77.10;97287.22;4941525;29;20035;-52
2021/12/26 14:34:10;;;;;;;17.33;8.52;;;;;;;3.26;77.52;97286.28;4941030;29;20032;-53
2021/12/26 14:36:42;;;;;;;14.20;6.82;;;;;;;3.25;77.14;97295.81;4940916;29;20027;-53
2021/12/26 14:39:08;;;;;;;14.98;7.30;;;;;;;3.20;77.91;97291.78;4942047;29;20027;-53
2021/12/26 14:41:40;;;;;;;16.85;7.95;;;;;;;3.27;77.24;97287.97;4941991;29;20023;-51
2021/12/26 14:44:29;;;;;;;15.40;7.93;;;;;;;3.27;77.81;97291.41;4932796;29;20092;-52
2021/12/26 14:47:07;;;;;;;17.80;7.63;;;;;;;3.31;76.59;97292.91;4941697;29;20051;-53
2021/12/26 14:50:00;;;;;;;18.27;8.10;;;;;;;3.19;76.94;97301.31;4941595;29;20039;-52
2021/12/26 14:52:26;;;;;;;15.65;7.47;;;;;;;3.27;77.72;97288.81;4918613;29;20058;-52
2021/12/26 14:54:54;;;;;;;15.90;7.20;;;;;;;3.31;76.75;97303.28;4925059;29;20123;-51
2021/12/26 14:57:26;;;;;;;18.13;8.73;;;;;;;3.25;77.24;97295.81;4941649;29;20050;-51
2021/12/26 14:59:53;;;;;;;19.55;9.05;;;;;;;3.14;78.00;97294.75;4941797;29;20019;-52
2021/12/26 15:02:19;;;;;;;18.98;8.43;;;;;;;3.07;77.79;97292.47;4941858;29;20042;-49
2021/12/26 15:04:46;;;;;;;17.38;8.27;;;;;;;3.08;78.26;97294.13;4941376;29;20511;-48
2021/12/26 15:07:17;;;;;;;16.90;8.52;;;;;;;2.90;78.99;97300.28;4938708;29;20027;-54
2021/12/26 15:09:45;;;;;;;15.50;7.43;;;;;;;3.01;77.90;97297.13;4941512;29;20024;-52
2021/12/26 15:12:36;;;;;;;15.88;8.20;;;;;;;2.98;78.56;97299.88;4940959;29;20063;-52
2021/12/26 15:15:17;;;;;;;16.92;8.57;;;;;;;2.95;78.77;97305.22;4940470;29;20051;-52
2021/12/26 15:18:12;;;;;;;18.40;7.97;;;;;;;2.98;77.95;97311.06;4939003;29;20034;-52
2021/12/26 15:20:40;;;;;;;15.43;7.75;;;;;;;2.80;79.28;97306.84;4941421;29;20032;-53
2021/12/26 15:23:11;;;;;;;17.02;8.02;;;;;;;2.80;78.94;97306.84;4940525;29;20032;-52
2021/12/26 15:25:57;;;;;;;17.80;8.18;;;;;;;2.66;79.75;97301.56;4940510;29;20035;-52
2021/12/26 15:28:30;;;;;;;18.10;8.25;;;;;;;2.84;79.35;97301.44;4925424;29;20048;-51
2021/12/26 15:31:07;;;;;;;17.90;8.30;;;;;;;2.88;78.59;97307.28;4921858;29;20027;-52
2021/12/26 15:33:39;;;;;;;19.20;8.90;;;;;;;2.60;79.74;97311.28;4921127;29;20024;-50
2021/12/26 15:36:06;;;;;;;20.13;9.73;;;;;;;2.75;79.33;97307.09;4931223;29;20488;-46
2021/12/26 15:38:32;;;;;;;43.35;17.63;;;;;;;2.89;78.99;97303.81;4939080;29;20047;-50
2021/12/26 15:40:57;;;;;;;20.38;9.90;;;;;;;2.71;79.17;97304.72;4940657;29;20032;-49
2021/12/26 15:43:22;;;;;;;18.75;9.57;;;;;;;2.74;79.46;97299.41;4940686;29;20030;-50
2021/12/26 15:45:48;;;;;;;16.33;8.77;;;;;;;2.78;79.23;97295.72;4940859;29;20024;-52
2021/12/26 15:48:14;;;;;;;20.00;10.50;;;;;;;2.56;79.30;97286.47;4939303;29;20023;-49
2021/12/26 15:50:39;;;;;;;20.38;10.05;;;;;;;2.55;79.58;97286.56;4941637;29;20039;-51
2021/12/26 15:53:05;;;;;;;20.75;10.55;;;;;;;2.47;79.87;97302.47;4940699;29;20023;-51
2021/12/26 15:55:30;;;;;;;19.15;9.48;;;;;;;2.52;80.06;97305.69;4940723;29;20034;-51
2021/12/26 15:57:59;;;;;;;19.42;9.35;;;;;;;2.73;79.23;97297.72;4940226;29;20032;-49
2021/12/26 16:00:25;;;;;;;19.20;9.38;;;;;;;2.62;79.38;97295.69;4939036;29;20036;-49
2021/12/26 16:02:51;;;;;;;18.80;9.85;;;;;;;2.65;79.69;97298.13;4940601;29;20062;-52
2021/12/26 16:05:16;;;;;;;18.80;8.90;;;;;;;2.54;79.77;97295.22;4940062;29;20117;-49
2021/12/26 16:07:41;;;;;;;18.02;8.98;;;;;;;2.58;79.57;97305.38;4940222;29;20027;-51
2021/12/26 16:10:07;;;;;;;20.90;10.25;;;;;;;2.51;79.44;97291.06;4938570;29;20046;-52
2021/12/26 16:12:33;;;;;;;20.67;10.00;;;;;;;2.46;79.86;97300.81;4940491;29;20181;-52
2021/12/26 16:14:58;;;;;;;19.50;9.38;;;;;;;2.50;80.31;97307.50;4940135;29;20023;-49
2021/12/26 16:17:24;;;;;;;18.45;8.35;;;;;;;2.36;80.02;97308.19;4940337;29;20091;-52
2021/12/26 16:19:49;;;;;;;18.08;9.30;;;;;;;2.56;79.22;97303.78;4937782;29;20047;-52
2021/12/26 16:22:15;;;;;;;17.75;9.43;;;;;;;2.57;80.04;97308.84;4939585;29;20039;-52
2021/12/26 16:24:40;;;;;;;17.35;8.82;;;;;;;2.65;78.80;97308.50;4938660;29;20043;-52
2021/12/26 16:27:07;;;;;;;20.10;10.32;;;;;;;2.53;79.11;97284.03;4941287;29;20020;-52
2021/12/26 16:29:33;;;;;;;18.65;8.48;;;;;;;2.54;79.60;97298.66;4944513;29;20055;-51
2021/12/26 16:31:59;;;;;;;22.35;10.15;;;;;;;2.50;80.00;97298.91;4942837;29;20042;-51
2021/12/26 16:34:24;;;;;;;18.85;9.45;;;;;;;2.55;79.56;97295.16;4944396;29;20031;-52
2021/12/26 16:36:49;;;;;;;20.50;9.93;;;;;;;2.65;79.24;97294.69;4943436;29;20554;-48
2021/12/26 16:39:15;;;;;;;19.92;10.27;;;;;;;2.54;79.49;97303.81;4944539;29;20020;-52
2021/12/26 16:41:41;;;;;;;20.08;9.63;;;;;;;2.68;79.56;97294.53;4942302;29;20030;-51
2021/12/26 16:44:06;;;;;;;18.75;9.70;;;;;;;2.53;79.73;97302.16;4942389;29;20028;-52
2021/12/26 16:46:33;;;;;;;22.02;10.20;;;;;;;2.53;79.47;97304.75;4943393;29;20023;-51
2021/12/26 16:48:59;;;;;;;20.85;9.70;;;;;;;2.54;79.01;97298.66;4944016;29;20099;-52
2021/12/26 16:51:25;;;;;;;19.02;9.30;;;;;;;2.45;80.03;97299.13;4930130;29;20031;-52
2021/12/26 16:53:50;;;;;;;18.02;9.45;;;;;;;2.54;79.33;97295.22;4934246;29;20028;-53
2021/12/26 16:56:16;;;;;;;20.35;10.48;;;;;;;2.37;79.72;97302.13;4943572;29;20035;-54
2021/12/26 16:58:41;;;;;;;20.67;9.63;;;;;;;2.45;79.63;97299.13;4944477;29;20024;-53
2021/12/26 17:01:07;;;;;;;21.75;10.75;;;;;;;2.44;79.60;97294.84;4944079;29;20661;-53
2021/12/26 17:03:33;;;;;;;17.45;9.57;;;;;;;2.25;80.58;97296.72;4937619;29;20098;-49
2021/12/26 17:05:58;;;;;;;20.85;10.02;;;;;;;2.55;79.71;97297.75;4942530;29;20398;-52
2021/12/26 17:08:23;;;;;;;20.58;9.50;;;;;;;2.45;79.34;97288.78;4940013;29;20078;-48
2021/12/26 17:10:49;;;;;;;24.23;11.90;;;;;;;2.42;79.64;97299.28;4943786;29;20399;-49
2021/12/26 17:13:14;;;;;;;27.00;14.20;;;;;;;2.54;79.20;97288.28;4944961;29;20221;-47
2021/12/26 17:15:41;;;;;;;29.50;17.92;;;;;;;2.58;79.47;97289.84;4963528;29;20027;-48
2021/12/26 17:18:06;;;;;;;33.47;19.23;;;;;;;2.63;79.19;97291.34;4949680;28;20495;-48
2021/12/26 17:20:32;;;;;;;28.35;14.52;;;;;;;2.54;79.04;97298.66;4941987;29;20115;-53
2021/12/26 17:22:57;;;;;;;21.83;10.07;;;;;;;2.43;79.94;97295.78;4928579;29;20464;-51
2021/12/26 17:25:23;;;;;;;19.67;10.50;;;;;;;2.49;79.01;97300.66;4939968;29;20027;-49
2021/12/26 17:27:48;;;;;;;21.65;11.18;;;;;;;2.47;78.98;97292.13;4949166;29;20020;-50
2021/12/26 17:30:19;;;;;;;21.83;11.63;;;;;;;2.54;78.37;97290.88;4936493;29;20031;-54
2021/12/26 17:32:46;;;;;;;20.30;10.85;;;;;;;2.40;79.65;97295.94;4924748;29;20024;-48
2021/12/26 17:35:11;;;;;;;20.27;11.85;;;;;;;2.44;79.41;97301.78;4925739;29;20179;-50
2021/12/26 17:37:37;;;;;;;18.73;9.27;;;;;;;2.46;79.02;97302.56;4943938;29;20031;-52
2021/12/26 17:40:03;;;;;;;20.65;10.70;;;;;;;2.39;79.38;97302.03;4944726;29;20036;-52
2021/12/26 17:42:28;;;;;;;21.60;9.88;;;;;;;2.35;78.91;97298.75;4943941;29;20067;-50
2021/12/26 17:44:54;;;;;;;20.73;9.45;;;;;;;2.37;79.82;97298.66;4944424;29;20032;-50
2021/12/26 17:47:19;;;;;;;18.52;9.75;;;;;;;2.31;79.93;97291.22;4944510;29;20083;-53
2021/12/26 17:49:45;;;;;;;18.35;9.68;;;;;;;2.34;79.66;97288.47;4944487;29;20031;-53
2021/12/26 17:52:10;;;;;;;20.77;9.77;;;;;;;2.37;79.67;97288.31;4943641;29;20166;-54
2021/12/26 17:54:36;;;;;;;22.80;11.50;;;;;;;2.44;78.89;97281.91;4944452;29;20074;-53
2021/12/26 17:57:01;;;;;;;22.60;13.57;;;;;;;2.36;79.22;97273.72;4939647;29;20044;-52
2021/12/26 17:59:26;;;;;;;22.33;11.70;;;;;;;2.33;79.65;97279.03;4924829;29;20027;-50
2021/12/26 18:01:53;;;;;;;29.95;14.13;;;;;;;2.34;79.28;97284.16;4931540;29;20040;-53
2021/12/26 18:04:19;;;;;;;22.27;10.13;;;;;;;2.35;79.65;97283.22;4940758;29;20028;-51
2021/12/26 18:06:45;;;;;;;17.02;9.02;;;;;;;2.37;78.73;97281.41;4932993;29;20024;-50
2021/12/26 18:09:10;;;;;;;19.85;9.30;;;;;;;2.44;77.87;97281.91;4938040;29;20576;-50
2021/12/26 18:11:36;;;;;;;19.60;9.65;;;;;;;2.26;78.97;97285.44;4934830;29;20468;-52
2021/12/26 18:14:01;;;;;;;19.48;9.35;;;;;;;2.48;78.34;97285.19;4938514;29;20058;-52
2021/12/26 18:16:26;;;;;;;18.67;9.05;;;;;;;2.48;78.04;97280.88;4942452;29;20024;-53
2021/12/26 18:18:52;;;;;;;17.65;8.52;;;;;;;2.58;77.75;97287.25;4932316;29;20034;-54
2021/12/26 18:21:17;;;;;;;18.33;9.07;;;;;;;2.53;77.86;97285.81;4943464;29;20026;-53
2021/12/26 18:23:43;;;;;;;16.52;7.97;;;;;;;2.44;78.21;97274.16;4943116;29;20388;-50
2021/12/26 18:26:08;;;;;;;18.23;8.93;;;;;;;2.56;77.37;97286.47;4942447;29;20035;-48
2021/12/26 18:28:34;;;;;;;16.40;8.57;;;;;;;2.57;78.15;97282.97;4937560;29;20024;-51
2021/12/26 18:31:01;;;;;;;18.00;8.15;;;;;;;2.39;78.56;97294.25;4936360;29;20118;-47
2021/12/26 18:33:30;;;;;;;16.15;8.45;;;;;;;2.59;77.75;97290.66;4943428;29;20035;-54
2021/12/26 18:35:56;;;;;;;16.63;8.55;;;;;;;2.46;78.06;97289.63;4941723;29;20789;-52
2021/12/26 18:38:22;;;;;;;15.13;7.82;;;;;;;2.53;77.91;97288.38;4943535;29;20028;-50
2021/12/26 18:40:47;;;;;;;18.15;7.72;;;;;;;2.52;77.99;97284.97;4930531;29;20028;-49
2021/12/26 18:43:12;;;;;;;15.43;7.53;;;;;;;2.40;78.63;97288.16;4924270;29;20028;-50
2021/12/26 18:45:40;;;;;;;14.57;6.80;;;;;;;2.35;77.87;97265.13;4935897;29;20027;-48
2021/12/26 18:48:06;;;;;;;14.68;6.78;;;;;;;2.38;78.03;97282.25;4943332;29;20023;-50
2021/12/26 18:50:32;;;;;;;18.55;8.93;;;;;;;2.43;77.10;97285.41;4943574;28;20036;-52
2021/12/26 18:52:58;;;;;;;17.95;8.60;;;;;;;2.34;77.50;97280.69;4943644;29;20034;-51
2021/12/26 18:55:23;;;;;;;15.07;7.47;;;;;;;2.49;77.77;97282.53;4942629;29;20103;-52
2021/12/26 18:57:49;;;;;;;16.38;7.18;;;;;;;2.40;77.57;97282.97;4939282;29;20110;-51
2021/12/26 19:00:19;;;;;;;18.45;9.10;;;;;;;2.34;77.34;97283.28;4935426;29;20035;-52
2021/12/26 19:02:49;;;;;;;19.80;8.38;;;;;;;2.36;77.29;97284.06;4924294;29;20035;-50
2021/12/26 19:05:14;;;;;;;23.27;11.10;;;;;;;2.48;77.40;97275.69;4934349;29;20039;-52
2021/12/26 19:07:40;;;;;;;14.82;6.95;;;;;;;2.25;78.03;97276.00;4938917;29;20024;-49
2021/12/26 19:10:05;;;;;;;16.67;7.88;;;;;;;2.36;77.70;97276.28;4939784;29;20027;-50
2021/12/26 19:12:31;;;;;;;22.30;9.55;;;;;;;2.34;77.88;97278.97;4942333;29;20024;-50
2021/12/26 19:14:56;;;;;;;17.88;8.32;;;;;;;2.29;77.67;97273.19;4942216;29;20037;-52
2021/12/26 19:17:21;;;;;;;14.65;6.55;;;;;;;2.61;77.00;97271.56;4942254;29;20034;-52
2021/12/26 19:19:47;;;;;;;17.92;9.35;;;;;;;2.40;76.90;97258.84;4942580;29;20032;-49
2021/12/26 19:22:12;;;;;;;16.65;7.95;;;;;;;2.29;77.75;97262.00;4942431;29;20032;-53
2021/12/26 19:24:37;;;;;;;17.40;8.25;;;;;;;2.24;77.44;97267.41;4942157;29;20039;-54
2021/12/26 19:27:03;;;;;;;29.65;13.18;;;;;;;2.33;77.82;97269.50;4942655;29;20030;-52
2021/12/26 19:29:30;;;;;;;31.85;14.30;;;;;;;2.47;76.82;97266.22;4940613;29;20035;-50
2021/12/26 19:31:56;;;;;;;24.58;11.35;;;;;;;2.48;77.13;97261.88;4944061;29;20040;-51